Time;durP1;ratioP1;P1;durP2;ratioP2;P2;SDS_P1;SDS_P2;PMS_P1;PMS_P2;Temp;Humidity;BMP_temperature;BMP_pressure;BME280_temperature;BME280_humidity;BME280_pressure;Samples;Min_cycle;Max_cycle;Signal;HPM_P1;HPM_P2
2022/03/18 00:02:29;;;;;;;13.45;8.73;;;;;;;-0.39;88.27;103674.78;10483927;28;20107;-75
2022/03/18 00:07:30;;;;;;;19.65;10.07;;;;;;;-0.42;88.29;103687.25;10541075;28;20085;-75
2022/03/18 00:12:30;;;;;;;14.63;9.10;;;;;;;-0.47;88.45;103689.19;10482360;28;20064;-75
2022/03/18 00:17:31;;;;;;;14.93;9.27;;;;;;;-0.53;88.57;103689.97;10483839;28;20066;-76
2022/03/18 00:22:31;;;;;;;18.10;8.98;;;;;;;-0.60;88.71;103684.00;10501222;28;20059;-76
2022/03/18 00:27:35;;;;;;;14.30;7.10;;;;;;;-0.69;88.80;103695.56;10499450;28;20135;-76
2022/03/18 00:32:39;;;;;;;18.42;8.95;;;;;;;-0.62;89.56;103707.66;10467707;28;20040;-76
2022/03/18 00:37:40;;;;;;;14.40;8.23;;;;;;;-0.53;89.91;103705.41;10449193;28;20028;-76
2022/03/18 00:42:40;;;;;;;12.97;7.93;;;;;;;-0.52;90.03;103696.97;10464011;28;20033;-76
2022/03/18 00:53:00;;;;;;;15.43;7.72;;;;;;;-0.66;89.20;103695.09;10417536;28;20071;-75
2022/03/18 00:58:00;;;;;;;14.80;9.23;;;;;;;-0.78;89.66;103707.16;10415747;28;20045;-75
2022/03/18 01:03:01;;;;;;;13.90;7.70;;;;;;;-0.79;89.32;103701.09;10405302;28;20099;-75
2022/03/18 01:08:01;;;;;;;16.20;9.73;;;;;;;-0.81;89.52;103709.31;10458046;28;20040;-75
2022/03/18 01:13:02;;;;;;;13.52;7.15;;;;;;;-0.81;89.58;103711.88;10453672;28;20429;-75
2022/03/18 01:18:03;;;;;;;20.17;8.35;;;;;;;-0.89;89.55;103716.88;10392505;28;20021;-75
2022/03/18 01:23:06;;;;;;;16.27;7.75;;;;;;;-0.99;89.28;103721.44;10413661;28;20033;-76
2022/03/18 01:28:07;;;;;;;17.05;7.50;;;;;;;-1.21;89.22;103735.50;10416133;28;20018;-76
2022/03/18 01:33:07;;;;;;;16.13;7.05;;;;;;;-1.29;89.49;103734.41;10415365;28;20469;-76
2022/03/18 01:38:08;;;;;;;23.08;8.23;;;;;;;-1.42;89.76;103746.22;10414473;28;20511;-76
2022/03/18 01:43:09;;;;;;;12.52;8.45;;;;;;;-1.29;89.93;103742.13;10413990;28;20060;-76
2022/03/18 01:48:09;;;;;;;9.37;6.47;;;;;;;-1.37;90.35;103743.63;10398244;28;20049;-76
2022/03/18 01:53:10;;;;;;;14.90;7.43;;;;;;;-1.52;89.60;103750.06;10413370;28;20048;-76
2022/03/18 01:58:10;;;;;;;13.70;7.72;;;;;;;-1.33;90.16;103747.53;10412440;28;20057;-76
2022/03/18 02:03:11;;;;;;;16.58;8.30;;;;;;;-1.48;90.23;103756.59;10415390;28;20060;-76
2022/03/18 02:08:11;;;;;;;18.33;9.05;;;;;;;-1.72;90.12;103760.06;10411943;28;20075;-75
2022/03/18 02:13:12;;;;;;;13.48;9.25;;;;;;;-1.84;89.89;103766.00;10412083;28;20083;-76
2022/03/18 02:18:12;;;;;;;11.13;7.18;;;;;;;-1.79;90.88;103765.94;10395578;28;20037;-75
2022/03/18 02:23:13;;;;;;;13.70;7.83;;;;;;;-1.77;91.20;103768.75;10412654;28;20061;-76
2022/03/18 02:28:13;;;;;;;15.50;8.30;;;;;;;-1.90;91.11;103772.81;10396587;28;20558;-75
2022/03/18 02:33:14;;;;;;;14.25;8.23;;;;;;;-2.06;90.64;103775.72;10411557;28;20047;-75
2022/03/18 02:38:15;;;;;;;38.30;10.47;;;;;;;-2.15;90.71;103771.81;10411124;28;20045;-76
2022/03/18 02:43:15;;;;;;;14.50;8.20;;;;;;;-2.07;90.90;103769.66;10410839;28;20060;-75
2022/03/18 02:48:16;;;;;;;15.43;9.53;;;;;;;-2.20;90.89;103776.28;10491114;28;20808;-76
2022/03/18 02:53:16;;;;;;;24.83;9.70;;;;;;;-2.25;91.35;103777.25;10477004;28;20125;-75
2022/03/18 02:58:17;;;;;;;18.52;8.50;;;;;;;-2.24;91.62;103781.66;10494928;28;20062;-75
2022/03/18 03:03:17;;;;;;;22.27;10.40;;;;;;;-2.39;91.54;103785.50;10476770;28;20078;-75
2022/03/18 03:08:18;;;;;;;21.80;11.90;;;;;;;-2.32;91.47;103777.03;10476139;28;20110;-75
2022/03/18 03:13:19;;;;;;;15.48;10.32;;;;;;;-2.43;91.71;103781.53;10477027;28;20036;-76
2022/03/18 03:18:20;;;;;;;30.15;12.50;;;;;;;-2.28;91.50;103779.34;10477618;28;20055;-75
2022/03/18 03:23:21;;;;;;;20.23;11.37;;;;;;;-2.28;91.65;103787.06;10475211;28;20036;-75
2022/03/18 03:28:22;;;;;;;18.15;11.00;;;;;;;-2.51;91.55;103794.88;10494716;28;20043;-75
2022/03/18 03:33:22;;;;;;;21.30;11.23;;;;;;;-2.71;91.25;103810.81;10460097;28;20032;-75
2022/03/18 03:38:23;;;;;;;17.98;11.15;;;;;;;-2.74;91.74;103818.03;10493153;28;20031;-75
2022/03/18 03:43:24;;;;;;;17.83;9.97;;;;;;;-2.98;91.96;103823.94;10459466;28;20463;-75
2022/03/18 03:48:24;;;;;;;14.07;9.70;;;;;;;-3.08;91.70;103833.50;10494044;28;20477;-75
2022/03/18 03:53:24;;;;;;;24.37;14.80;;;;;;;-3.21;91.83;103824.69;10458577;28;20075;-75
2022/03/18 03:58:25;;;;;;;18.10;9.90;;;;;;;-3.36;91.09;103842.16;10458866;28;20121;-75
2022/03/18 04:03:26;;;;;;;17.33;9.73;;;;;;;-3.42;91.32;103854.03;10476014;28;20115;-75
2022/03/18 04:08:26;;;;;;;15.20;9.10;;;;;;;-3.47;91.63;103853.34;10443117;28;20480;-75
2022/03/18 04:13:26;;;;;;;23.63;9.63;;;;;;;-3.50;91.66;103852.88;10492068;28;20033;-75
2022/03/18 04:18:27;;;;;;;16.13;10.70;;;;;;;-3.42;92.13;103844.72;10464557;28;20107;-75
2022/03/18 04:23:28;;;;;;;12.60;8.13;;;;;;;-3.48;92.08;103850.53;10482867;28;20464;-75
2022/03/18 04:28:28;;;;;;;21.47;12.93;;;;;;;-3.61;91.49;103871.72;10501074;28;20102;-75
2022/03/18 04:33:28;;;;;;;17.23;12.37;;;;;;;-3.58;92.20;103881.50;10481720;28;20072;-75
2022/03/18 04:38:29;;;;;;;21.70;12.60;;;;;;;-3.69;91.68;103901.28;10482071;28;20071;-74
2022/03/18 04:43:30;;;;;;;19.17;12.23;;;;;;;-3.75;91.88;103886.59;10465507;28;20048;-75
2022/03/18 04:48:30;;;;;;;17.70;11.83;;;;;;;-3.64;92.10;103889.16;10498827;28;20060;-74
2022/03/18 04:53:31;;;;;;;17.70;11.97;;;;;;;-3.52;92.67;103892.69;10480817;28;20129;-73
2022/03/18 04:58:32;;;;;;;22.93;14.07;;;;;;;-3.61;92.81;103899.88;10480329;28;20472;-73
2022/03/18 05:03:32;;;;;;;20.13;14.73;;;;;;;-3.66;92.85;103921.28;10477724;28;20040;-75
2022/03/18 05:08:33;;;;;;;43.77;26.00;;;;;;;-3.78;92.58;103919.38;10479231;28;20029;-73
2022/03/18 05:13:33;;;;;;;43.13;28.33;;;;;;;-3.86;92.46;103936.13;10447577;28;20454;-74
2022/03/18 05:18:34;;;;;;;35.03;22.10;;;;;;;-3.88;92.66;103933.31;10478499;28;20060;-73
2022/03/18 05:23:34;;;;;;;29.37;18.57;;;;;;;-3.80;92.32;103941.25;10479201;28;20115;-74
2022/03/18 05:28:37;;;;;;;35.60;19.50;;;;;;;-3.85;92.70;103958.47;10461729;28;20028;-74
2022/03/18 05:33:38;;;;;;;29.23;18.75;;;;;;;-3.96;92.65;103958.44;10480653;28;20104;-74
2022/03/18 05:38:38;;;;;;;25.17;16.75;;;;;;;-3.80;92.64;103965.25;10497680;28;20040;-73
2022/03/18 05:43:40;;;;;;;25.93;17.03;;;;;;;-3.88;92.37;103968.25;10494783;28;20040;-74
2022/03/18 05:48:40;;;;;;;32.17;19.05;;;;;;;-3.92;92.53;103976.13;10479421;28;20485;-73
2022/03/18 05:53:41;;;;;;;23.80;17.47;;;;;;;-3.81;92.83;103976.19;10476151;28;20033;-75
2022/03/18 05:58:42;;;;;;;36.23;18.73;;;;;;;-3.68;92.65;103989.25;10477721;28;20062;-76
2022/03/18 06:03:43;;;;;;;32.53;19.50;;;;;;;-3.65;92.77;103994.84;10477788;28;20501;-76
2022/03/18 06:14:02;;;;;;;26.55;17.10;;;;;;;-3.54;92.65;103994.88;10494644;28;20025;-76
2022/03/18 06:19:03;;;;;;;30.77;18.53;;;;;;;-3.36;92.91;103994.94;10476643;28;20029;-75
2022/03/18 06:24:04;;;;;;;28.67;17.47;;;;;;;-3.20;93.41;104000.75;10495813;28;20396;-75
2022/03/18 06:29:05;;;;;;;26.57;17.03;;;;;;;-2.89;93.10;104006.41;10459753;28;20047;-75
2022/03/18 06:34:06;;;;;;;31.53;17.83;;;;;;;-2.46;93.71;104009.38;10479187;28;20025;-75
2022/03/18 06:39:07;;;;;;;26.20;19.05;;;;;;;-1.85;94.22;104005.50;10476616;28;20040;-75
2022/03/18 06:44:09;;;;;;;24.38;15.18;;;;;;;-0.48;94.54;103998.72;10496998;28;20044;-75
2022/03/18 06:49:10;;;;;;;20.65;13.43;;;;;;;0.25;94.38;103985.69;10495779;28;20392;-76
2022/03/18 06:54:12;;;;;;;17.85;11.52;;;;;;;1.52;90.62;104002.00;10494326;28;20036;-75
2022/03/18 06:59:12;;;;;;;17.63;9.73;;;;;;;3.27;85.64;104010.91;10496460;28;20070;-76
2022/03/18 07:04:13;;;;;;;19.40;7.97;;;;;;;6.11;75.93;104006.22;10494168;28;20074;-76
2022/03/18 07:09:13;;;;;;;14.40;6.68;;;;;;;8.31;63.49;104000.06;10494431;28;20123;-76
2022/03/18 07:14:14;;;;;;;11.68;5.70;;;;;;;10.03;54.94;103995.91;10495352;28;20473;-76
2022/03/18 07:19:15;;;;;;;15.35;5.80;;;;;;;10.67;50.13;103993.53;10493882;28;20594;-76
2022/03/18 07:24:16;;;;;;;10.30;5.23;;;;;;;10.56;50.98;104000.31;10492870;28;20515;-77
2022/03/18 07:29:16;;;;;;;18.27;6.13;;;;;;;11.27;50.23;103989.56;10492943;28;20035;-75
2022/03/18 07:34:17;;;;;;;12.35;7.25;;;;;;;12.01;47.88;104004.31;10488788;28;20062;-76
2022/03/18 07:39:18;;;;;;;19.40;9.50;;;;;;;13.41;47.10;103985.06;10492221;28;20031;-76
2022/03/18 07:44:18;;;;;;;15.35;6.80;;;;;;;14.80;42.28;103981.56;10489833;28;20040;-76
2022/03/18 07:49:19;;;;;;;15.00;7.85;;;;;;;15.16;41.71;103994.94;10496014;28;20103;-76
2022/03/18 07:54:19;;;;;;;12.98;9.20;;;;;;;15.64;40.82;103988.06;10499779;28;20062;-77
2022/03/18 07:59:20;;;;;;;15.77;6.47;;;;;;;15.73;41.35;103993.13;10499201;28;20024;-77
2022/03/18 08:04:20;;;;;;;22.92;8.05;;;;;;;15.89;40.87;103996.19;10497757;28;20033;-77
2022/03/18 08:09:21;;;;;;;15.98;7.70;;;;;;;15.35;41.63;104018.41;10490410;28;20068;-76
2022/03/18 08:14:22;;;;;;;18.40;7.65;;;;;;;13.29;46.34;104023.47;10459158;28;20061;-77
2022/03/18 08:19:24;;;;;;;11.60;6.72;;;;;;;13.98;45.77;104040.75;10482145;28;20131;-76
2022/03/18 08:24:25;;;;;;;14.50;6.65;;;;;;;14.03;44.86;104037.69;10482886;28;20031;-78
2022/03/18 08:29:25;;;;;;;15.10;7.82;;;;;;;12.36;46.26;104059.94;10500016;28;20063;-81
2022/03/18 08:34:26;;;;;;;11.40;6.70;;;;;;;11.23;50.59;104073.94;10482478;28;20052;-77
2022/03/18 08:39:26;;;;;;;19.33;6.57;;;;;;;10.40;53.18;104065.97;10499525;28;20021;-77
2022/03/18 08:44:27;;;;;;;13.77;6.50;;;;;;;10.07;55.32;104077.50;10498595;28;20501;-76
2022/03/18 08:49:27;;;;;;;10.82;4.97;;;;;;;9.82;55.00;104084.53;10490095;28;20036;-75
2022/03/18 08:54:28;;;;;;;7.03;3.83;;;;;;;10.23;54.63;104082.56;10502813;28;20035;-75
2022/03/18 08:59:28;;;;;;;9.15;4.00;;;;;;;10.64;49.72;104083.97;10486020;28;20403;-76
2022/03/18 09:04:29;;;;;;;8.32;3.13;;;;;;;11.25;49.74;104088.13;10478278;28;20043;-75
2022/03/18 09:09:29;;;;;;;8.73;3.60;;;;;;;11.68;47.38;104083.44;10466340;28;20120;-75
2022/03/18 09:14:30;;;;;;;8.30;3.97;;;;;;;12.84;44.64;104093.16;10490695;28;20473;-76
2022/03/18 09:19:30;;;;;;;6.65;2.97;;;;;;;15.11;40.39;104100.06;10484852;28;20029;-76
2022/03/18 09:24:32;;;;;;;10.45;2.83;;;;;;;17.78;33.44;104096.13;10456188;28;20093;-76
2022/03/18 09:29:32;;;;;;;8.13;3.07;;;;;;;18.22;32.39;104097.38;10469294;28;20135;-76
2022/03/18 09:34:34;;;;;;;5.07;2.17;;;;;;;18.43;32.15;104099.66;10493661;28;20032;-75
2022/03/18 09:39:35;;;;;;;5.97;2.33;;;;;;;19.27;30.82;104105.06;10473242;28;20048;-76
2022/03/18 09:44:39;;;;;;;6.43;1.83;;;;;;;20.18;27.97;104110.63;10493177;28;20072;-76
2022/03/18 09:49:40;;;;;;;4.68;1.88;;;;;;;20.39;28.82;104107.38;10480135;28;20032;-76
2022/03/18 09:54:41;;;;;;;6.72;2.40;;;;;;;21.39;25.54;104106.78;10445708;28;20024;-76
2022/03/18 09:59:41;;;;;;;5.63;2.67;;;;;;;20.83;27.02;104109.06;10475157;28;20021;-76
2022/03/18 10:05:06;;;;;;;3.60;2.23;;;;;;;21.11;27.07;104120.34;10472374;28;20567;-76
2022/03/18 10:10:14;;;;;;;6.43;2.05;;;;;;;21.89;26.52;104113.88;10470942;28;20036;-75
2022/03/18 10:15:16;;;;;;;7.05;2.20;;;;;;;21.65;27.63;104112.63;10442008;28;20043;-75
2022/03/18 10:20:23;;;;;;;;;;;;;;;21.68;27.20;104106.56;10444746;28;20043;-77
2022/03/18 10:25:37;;;;;;;5.43;2.90;;;;;;;21.34;27.24;104110.97;10475153;28;20003;-77
2022/03/18 10:30:38;;;;;;;6.95;2.42;;;;;;;21.36;27.46;104111.97;10481093;28;20028;-78
2022/03/18 10:40:59;;;;;;;11.02;3.90;;;;;;;21.41;28.00;104115.78;10456350;28;20044;-79
2022/03/18 10:46:04;;;;;;;7.53;3.20;;;;;;;22.13;26.81;104106.19;10456510;28;20039;-79
2022/03/18 10:51:06;;;;;;;8.68;3.33;;;;;;;22.34;27.01;104110.78;10461112;28;20037;-78
2022/03/18 10:56:08;;;;;;;11.98;4.20;;;;;;;21.67;27.62;104107.41;10459174;28;20024;-78
2022/03/18 11:01:12;;;;;;;;;;;;;;;21.70;26.94;104111.13;10494409;28;20048;-78
2022/03/18 11:06:13;;;;;;;11.63;3.80;;;;;;;21.61;29.29;104109.72;10490882;28;19920;-78
2022/03/18 11:11:15;;;;;;;7.43;3.40;;;;;;;21.91;28.73;104121.09;10445181;28;20081;-77
2022/03/18 11:16:24;;;;;;;8.75;2.78;;;;;;;22.23;27.12;104108.50;10434392;28;20040;-78
2022/03/18 11:21:35;;;;;;;7.70;3.55;;;;;;;22.58;27.06;104119.16;10473029;28;20037;-78
2022/03/18 11:26:36;;;;;;;10.32;3.45;;;;;;;23.16;25.97;104118.34;10483502;28;20502;-78
2022/03/18 11:31:36;;;;;;;8.38;3.58;;;;;;;22.04;26.79;104116.41;10468774;28;20017;-79
2022/03/18 11:36:38;;;;;;;19.65;3.80;;;;;;;21.65;27.72;104109.97;10499628;28;20543;-78
2022/03/18 11:41:48;;;;;;;8.15;4.47;;;;;;;21.85;26.56;104107.44;10450393;28;20033;-79
2022/03/18 11:46:49;;;;;;;5.78;2.83;;;;;;;22.47;25.74;104104.38;10473658;28;20457;-79
2022/03/18 11:51:59;;;;;;;5.43;2.58;;;;;;;21.87;26.55;104097.78;10458663;28;20041;-78
2022/03/18 11:57:01;;;;;;;6.40;2.95;;;;;;;21.75;27.88;104091.81;10470538;28;20476;-78
2022/03/18 12:02:03;;;;;;;7.63;2.25;;;;;;;21.66;27.19;104085.16;10473896;28;20040;-79
2022/03/18 12:07:27;;;;;;;4.93;2.55;;;;;;;22.04;26.59;104084.41;10449738;28;20055;-79
2022/03/18 12:12:38;;;;;;;3.90;1.70;;;;;;;21.89;26.85;104081.88;10463234;28;20035;-77
2022/03/18 12:17:43;;;;;;;4.70;2.88;;;;;;;22.09;26.30;104072.22;10497459;28;20056;-77
2022/03/18 12:22:43;;;;;;;7.05;2.97;;;;;;;22.18;24.98;104066.44;10483424;28;20094;-77
2022/03/18 12:27:44;;;;;;;11.23;3.90;;;;;;;21.93;26.89;104075.88;10496856;28;20151;-77
2022/03/18 12:32:49;;;;;;;5.40;2.45;;;;;;;21.75;25.88;104063.41;10474882;28;20174;-77
2022/03/18 12:37:49;;;;;;;5.78;2.85;;;;;;;21.71;27.18;104061.44;10464486;28;20036;-77
2022/03/18 12:42:52;;;;;;;9.93;3.53;;;;;;;22.43;26.29;104050.81;10449718;28;20146;-77
2022/03/18 12:47:52;;;;;;;9.20;2.25;;;;;;;21.78;26.27;104055.56;10447534;28;20517;-77
2022/03/18 12:52:53;;;;;;;14.45;4.45;;;;;;;21.72;27.62;104055.25;10478966;28;20035;-77
2022/03/18 12:57:53;;;;;;;7.45;2.47;;;;;;;22.03;25.77;104053.22;10474362;28;20488;-77
2022/03/18 13:02:54;;;;;;;6.38;2.78;;;;;;;21.24;26.01;104060.69;10462436;28;20044;-77
2022/03/18 13:07:58;;;;;;;5.40;2.55;;;;;;;21.66;25.67;104057.59;10492183;28;20111;-77
2022/03/18 13:13:13;;;;;;;6.60;3.03;;;;;;;21.86;24.51;104055.94;10448328;28;20419;-77
2022/03/18 13:18:15;;;;;;;8.13;2.97;;;;;;;22.06;23.43;104045.38;10454707;28;20512;-78
2022/03/18 13:23:19;;;;;;;6.05;2.47;;;;;;;21.03;24.77;104047.13;10458582;28;20025;-77
2022/03/18 13:28:20;;;;;;;5.15;2.72;;;;;;;21.84;24.67;104042.56;10460482;28;20050;-77
2022/03/18 13:33:20;;;;;;;4.80;2.30;;;;;;;21.31;25.05;104041.53;10462014;28;20085;-78
2022/03/18 13:38:22;;;;;;;6.05;2.45;;;;;;;21.02;26.58;104039.97;10455781;28;20100;-77
2022/03/18 13:43:34;;;;;;;8.18;3.13;;;;;;;21.50;26.78;104031.84;10432363;28;20069;-77
2022/03/18 13:48:34;;;;;;;6.57;2.50;;;;;;;;;;10463392;28;20419;-77
2022/03/18 13:53:36;;;;;;;8.45;2.08;;;;;;;21.92;23.94;104026.94;10459010;28;20052;-78
2022/03/18 13:58:36;;;;;;;;;;;;;;;21.66;23.39;104023.84;10437325;28;20025;-78
2022/03/18 14:03:38;;;;;;;23.33;3.73;;;;;;;21.21;24.33;104016.16;10473759;28;19917;-78
2022/03/18 14:08:39;;;;;;;4.70;2.50;;;;;;;21.13;24.19;104021.06;10460772;28;20645;-77
2022/03/18 14:13:40;;;;;;;7.65;1.95;;;;;;;21.84;24.54;104017.63;10470117;28;20091;-77
2022/03/18 14:18:41;;;;;;;11.07;3.25;;;;;;;21.55;25.49;104009.97;10470548;28;20067;-77
2022/03/18 14:23:46;;;;;;;3.72;1.77;;;;;;;21.18;26.00;104004.41;10455272;28;20033;-78
2022/03/18 14:28:48;;;;;;;11.20;2.70;;;;;;;21.38;25.54;104001.06;10477232;28;20107;-77
2022/03/18 14:33:49;;;;;;;6.53;2.22;;;;;;;20.31;23.46;104010.28;10474641;28;20013;-77
2022/03/18 14:38:50;;;;;;;5.00;1.85;;;;;;;19.98;25.75;104012.81;10468436;28;20443;-77
2022/03/18 14:43:50;;;;;;;5.30;2.80;;;;;;;20.17;25.75;104006.84;10457362;28;20067;-77
2022/03/18 14:48:51;;;;;;;7.45;2.97;;;;;;;20.48;25.49;104009.50;10510774;28;20063;-78
2022/03/18 14:53:51;;;;;;;4.20;2.63;;;;;;;20.90;23.38;104006.53;10472245;28;20116;-79
2022/03/18 14:58:54;;;;;;;6.15;2.83;;;;;;;20.34;25.96;103991.84;10449161;28;20049;-79
2022/03/18 15:03:55;;;;;;;4.03;2.15;;;;;;;19.92;24.44;103995.69;10475212;28;20033;-79
2022/03/18 15:08:55;;;;;;;6.68;2.92;;;;;;;20.03;26.75;103991.00;10478133;28;20479;-79
2022/03/18 15:13:56;;;;;;;12.27;2.45;;;;;;;20.35;25.03;103985.69;10454101;28;20505;-78
2022/03/18 15:18:56;;;;;;;5.22;2.58;;;;;;;20.06;26.13;103979.63;10472581;28;20028;-78
2022/03/18 15:23:58;;;;;;;4.05;1.95;;;;;;;20.21;28.00;103990.25;10467917;28;20127;-78
2022/03/18 15:28:59;;;;;;;7.80;2.25;;;;;;;19.58;27.22;103976.81;10489362;28;20032;-78
2022/03/18 15:34:00;;;;;;;6.93;2.80;;;;;;;19.27;30.21;103983.81;10474980;28;20024;-78
2022/03/18 15:39:00;;;;;;;5.53;2.88;;;;;;;18.47;30.17;103985.00;10465409;28;20103;-78
2022/03/18 15:44:02;;;;;;;5.28;2.15;;;;;;;16.49;31.89;103988.19;10460698;28;20119;-77
2022/03/18 15:49:03;;;;;;;2.97;1.98;;;;;;;15.51;33.42;103995.03;10467645;28;20462;-78
2022/03/18 15:54:04;;;;;;;3.90;1.77;;;;;;;14.76;36.06;103997.94;10467541;28;20037;-78
2022/03/18 15:59:08;;;;;;;7.63;2.60;;;;;;;13.96;37.87;103990.56;10441186;28;20042;-79
2022/03/18 16:04:09;;;;;;;5.88;2.55;;;;;;;13.49;39.80;103997.19;10481440;28;20131;-79
2022/03/18 16:09:09;;;;;;;4.75;2.40;;;;;;;13.30;39.97;104006.91;10455656;28;20396;-78
2022/03/18 16:14:11;;;;;;;6.28;2.28;;;;;;;13.10;40.41;103994.66;10484018;28;20060;-77
2022/03/18 16:19:12;;;;;;;7.47;2.50;;;;;;;12.89;41.61;103997.25;10429747;28;20119;-77
2022/03/18 16:24:13;;;;;;;28.83;4.80;;;;;;;12.47;42.99;103993.53;10467676;28;20061;-77
2022/03/18 16:29:17;;;;;;;5.88;2.42;;;;;;;12.19;44.26;103994.59;10480855;28;20041;-78
2022/03/18 16:34:19;;;;;;;6.03;2.83;;;;;;;12.00;44.21;103991.97;10498829;28;20074;-77
2022/03/18 16:39:20;;;;;;;12.23;2.63;;;;;;;11.92;43.53;104005.16;10479097;28;20495;-78
2022/03/18 16:44:21;;;;;;;7.77;2.37;;;;;;;11.75;44.32;104005.44;10463737;28;20752;-77
2022/03/18 16:49:25;;;;;;;4.40;1.67;;;;;;;11.52;46.28;104010.22;10498597;28;20063;-77
2022/03/18 16:54:26;;;;;;;6.05;2.70;;;;;;;11.35;47.04;104020.03;10488521;28;20396;-77
2022/03/18 16:59:26;;;;;;;8.02;2.72;;;;;;;11.27;47.41;104021.00;10497575;28;20043;-77
2022/03/18 17:04:27;;;;;;;5.80;2.88;;;;;;;11.02;48.25;104024.84;10495962;28;20066;-77
2022/03/18 17:09:27;;;;;;;7.47;2.92;;;;;;;10.89;49.13;104032.28;10480689;28;20033;-77
2022/03/18 17:14:28;;;;;;;5.03;3.40;;;;;;;10.70;49.38;104026.94;10478884;28;20052;-77
2022/03/18 17:19:29;;;;;;;6.95;3.50;;;;;;;10.51;50.37;104030.38;10454233;28;20024;-76
2022/03/18 17:24:30;;;;;;;6.78;2.90;;;;;;;10.18;51.83;104041.00;10479689;28;20079;-77
2022/03/18 17:29:30;;;;;;;4.75;3.03;;;;;;;10.05;51.74;104038.84;10497069;28;20135;-75
2022/03/18 17:34:31;;;;;;;5.88;3.25;;;;;;;9.68;53.35;104047.41;10476835;28;20064;-76
2022/03/18 17:39:34;;;;;;;6.45;3.38;;;;;;;9.06;55.29;104061.06;10477868;28;20034;-76
2022/03/18 17:44:35;;;;;;;7.68;3.08;;;;;;;8.60;57.25;104059.72;10475897;28;20040;-76
2022/03/18 17:49:35;;;;;;;8.18;3.13;;;;;;;8.18;58.80;104063.06;10460211;28;20039;-76
2022/03/18 17:54:36;;;;;;;8.85;4.28;;;;;;;7.84;60.71;104070.72;10465998;28;20036;-77
2022/03/18 17:59:39;;;;;;;8.80;4.35;;;;;;;7.63;61.25;104066.66;10456979;28;20025;-77
2022/03/18 18:04:43;;;;;;;6.55;4.20;;;;;;;7.19;62.25;104071.34;10495184;28;20036;-77
2022/03/18 18:09:44;;;;;;;8.25;4.70;;;;;;;6.94;63.99;104081.56;10459949;28;20039;-77
2022/03/18 18:14:46;;;;;;;8.65;3.65;;;;;;;6.94;63.94;104081.56;10459078;28;20064;-77
2022/03/18 18:25:05;;;;;;;7.10;3.92;;;;;;;6.79;64.70;104085.03;10476759;28;20484;-76
2022/03/18 18:30:07;;;;;;;10.27;4.43;;;;;;;6.57;66.64;104093.91;10461164;28;20028;-76
2022/03/18 18:35:07;;;;;;;12.95;4.22;;;;;;;6.35;66.69;104092.16;10494054;28;20040;-75
2022/03/18 18:40:09;;;;;;;10.52;4.80;;;;;;;6.13;66.84;104100.97;10474206;28;20035;-77
2022/03/18 18:45:09;;;;;;;10.37;4.20;;;;;;;6.13;67.16;104103.56;10460186;28;20061;-77
2022/03/18 18:50:10;;;;;;;13.13;4.55;;;;;;;5.95;67.46;104099.69;10495606;28;20094;-77
2022/03/18 18:55:20;;;;;;;7.88;4.10;;;;;;;5.70;68.07;104103.63;10461644;28;20060;-76
2022/03/18 19:00:21;;;;;;;9.98;3.95;;;;;;;5.34;68.94;104103.66;10495185;28;20483;-75
2022/03/18 19:05:21;;;;;;;11.23;4.80;;;;;;;5.09;69.87;104090.31;10475465;28;20044;-76
2022/03/18 19:10:22;;;;;;;11.48;5.60;;;;;;;4.91;70.89;104099.38;10510697;28;20060;-76
2022/03/18 19:15:22;;;;;;;11.45;4.57;;;;;;;4.79;71.80;104099.72;10487900;28;20125;-76
2022/03/18 19:20:23;;;;;;;11.65;4.82;;;;;;;4.73;72.32;104111.00;10460358;28;20033;-76
2022/03/18 19:25:23;;;;;;;8.32;4.65;;;;;;;4.62;73.48;104118.38;10460856;28;20024;-75
2022/03/18 19:30:24;;;;;;;9.02;4.45;;;;;;;4.60;73.78;104112.09;10476326;28;20074;-77
2022/03/18 19:35:27;;;;;;;12.30;4.78;;;;;;;4.57;74.21;104119.47;10440739;28;20039;-77
2022/03/18 19:40:35;;;;;;;10.35;5.20;;;;;;;4.51;73.81;104122.25;10494997;28;20472;-77
2022/03/18 19:45:36;;;;;;;10.27;5.43;;;;;;;4.35;74.17;104114.22;10479301;28;20040;-77
2022/03/18 19:50:36;;;;;;;12.73;6.63;;;;;;;4.25;74.78;104127.72;10485910;28;20042;-77
2022/03/18 20:00:59;;;;;;;11.40;5.85;;;;;;;4.02;76.27;104134.25;10486686;28;20544;-78
2022/03/18 20:05:59;;;;;;;12.60;7.60;;;;;;;4.04;76.44;104130.19;10469572;28;20072;-78
2022/03/18 20:11:00;;;;;;;10.68;6.40;;;;;;;3.93;77.19;104137.53;10483132;28;20064;-78
2022/03/18 20:16:00;;;;;;;10.82;5.03;;;;;;;3.82;76.73;104137.81;10479996;28;20107;-78
2022/03/18 20:21:01;;;;;;;12.98;6.60;;;;;;;3.74;77.02;104135.91;10484074;28;20492;-77
2022/03/18 20:26:02;;;;;;;16.55;7.72;;;;;;;3.45;78.42;104140.88;10501150;28;20044;-77
2022/03/18 20:31:02;;;;;;;9.52;5.82;;;;;;;3.36;79.39;104136.34;10500189;28;20504;-78
2022/03/18 20:36:06;;;;;;;15.68;6.82;;;;;;;3.36;79.61;104145.75;10464238;28;20098;-77
2022/03/18 20:41:10;;;;;;;16.80;7.75;;;;;;;3.27;79.79;104148.09;10483417;28;20036;-78
2022/03/18 20:46:11;;;;;;;11.43;7.75;;;;;;;3.19;80.75;104147.09;10464434;28;20045;-77
2022/03/18 20:51:11;;;;;;;12.38;8.40;;;;;;;3.18;81.21;104159.84;10481170;28;20037;-78
2022/03/18 20:56:12;;;;;;;11.80;6.63;;;;;;;3.25;80.91;104156.38;10480215;28;20029;-78
2022/03/18 21:01:13;;;;;;;13.38;7.13;;;;;;;3.22;81.37;104162.13;10481279;28;20115;-78
2022/03/18 21:06:14;;;;;;;16.40;8.25;;;;;;;3.24;81.26;104168.41;10464396;28;20475;-78
2022/03/18 21:11:15;;;;;;;12.65;7.75;;;;;;;3.30;81.60;104168.28;10480002;28;20165;-77
2022/03/18 21:16:16;;;;;;;15.73;7.70;;;;;;;3.34;81.03;104162.75;10464614;28;20047;-77
2022/03/18 21:21:16;;;;;;;18.55;8.55;;;;;;;3.28;81.29;104173.28;10480101;28;20060;-78
2022/03/18 21:31:36;;;;;;;14.80;7.05;;;;;;;3.21;81.09;104173.19;10483055;28;20044;-78
2022/03/18 21:36:38;;;;;;;14.57;7.10;;;;;;;3.13;81.61;104177.34;10462882;28;20021;-77
2022/03/18 21:41:38;;;;;;;11.02;6.53;;;;;;;3.12;82.03;104177.16;10480730;28;20476;-78
2022/03/18 21:46:39;;;;;;;11.52;8.07;;;;;;;3.27;81.88;104174.00;10495855;28;20072;-78
2022/03/18 21:51:39;;;;;;;11.93;7.90;;;;;;;3.20;81.30;104174.84;10481154;28;20495;-78
2022/03/18 21:56:44;;;;;;;9.77;5.90;;;;;;;3.19;81.67;104175.56;10483677;28;20039;-76
2022/03/18 22:01:48;;;;;;;13.75;8.07;;;;;;;3.30;82.25;104163.09;10480659;28;20080;-78
2022/03/18 22:06:48;;;;;;;11.50;7.95;;;;;;;3.27;81.80;104173.06;10470282;28;20035;-77
2022/03/18 22:11:49;;;;;;;13.70;9.13;;;;;;;3.17;82.23;104165.75;10480486;28;20064;-77
2022/03/18 22:16:49;;;;;;;13.13;6.95;;;;;;;3.01;82.08;104178.34;10476566;28;20040;-78
2022/03/18 22:21:50;;;;;;;14.82;8.38;;;;;;;2.77;82.47;104172.72;10467109;28;20128;-78
2022/03/18 22:26:51;;;;;;;14.38;8.30;;;;;;;2.72;82.67;104173.78;10477444;28;20123;-77
2022/03/18 22:31:51;;;;;;;15.65;9.77;;;;;;;2.57;82.88;104162.31;10459839;28;20024;-77
2022/03/18 22:36:52;;;;;;;13.50;10.50;;;;;;;2.34;83.43;104165.34;10461163;28;20452;-77
2022/03/18 22:41:52;;;;;;;16.55;8.60;;;;;;;2.15;84.54;104163.59;10459201;28;20043;-77
2022/03/18 22:46:53;;;;;;;18.15;10.27;;;;;;;2.11;84.69;104159.66;10453797;28;20522;-77
2022/03/18 22:51:54;;;;;;;21.40;11.20;;;;;;;2.07;84.65;104162.56;10445807;28;20072;-77
2022/03/18 22:56:54;;;;;;;20.65;11.10;;;;;;;2.07;85.19;104172.91;10407819;28;20035;-77
2022/03/18 23:01:55;;;;;;;21.05;12.30;;;;;;;1.98;85.28;104169.06;10477654;28;20510;-77
2022/03/18 23:06:55;;;;;;;19.13;11.43;;;;;;;2.10;85.64;104173.31;10495772;28;20036;-78
2022/03/18 23:12:11;;;;;;;20.95;10.13;;;;;;;2.04;85.61;104175.97;10477608;28;20081;-77
2022/03/18 23:17:12;;;;;;;19.67;11.88;;;;;;;1.94;85.62;104174.53;10476613;28;20021;-78
2022/03/18 23:22:13;;;;;;;19.23;10.77;;;;;;;1.87;85.93;104176.28;10501460;28;20036;-77
2022/03/18 23:27:15;;;;;;;16.83;9.55;;;;;;;1.90;85.82;104175.75;10485167;28;20059;-77
2022/03/18 23:32:20;;;;;;;;;;;;;;;1.91;86.06;104180.22;10467231;28;20078;-77